Time;durP1;ratioP1;P1;durP2;ratioP2;P2;SDS_P1;SDS_P2;PMS_P1;PMS_P2;Temp;Humidity;BMP_temperature;BMP_pressure;BME280_temperature;BME280_humidity;BME280_pressure;Samples;Min_cycle;Max_cycle;Signal;HPM_P1;HPM_P2
2020/12/20 00:00:16;;;;;;;4.83;1.87;;;9.80;86.30;;;;;;5059518;28;20035;-75
2020/12/20 00:02:49;;;;;;;6.37;2.47;;;9.70;86.20;;;;;;5091553;28;20031;-75
2020/12/20 00:05:15;;;;;;;4.43;2.07;;;9.70;86.30;;;;;;5092417;28;20032;-76
2020/12/20 00:07:41;;;;;;;6.23;2.43;;;9.70;86.30;;;;;;5091975;28;20038;-76
2020/12/20 00:10:06;;;;;;;6.03;2.70;;;9.70;86.50;;;;;;5070419;28;20036;-75
2020/12/20 00:12:33;;;;;;;6.67;2.90;;;9.70;86.50;;;;;;5072439;28;20028;-75
2020/12/20 00:14:59;;;;;;;7.33;2.80;;;9.70;86.50;;;;;;5071628;28;20052;-75
2020/12/20 00:17:25;;;;;;;5.23;2.70;;;9.60;86.50;;;;;;5072967;28;20042;-75
2020/12/20 00:19:50;;;;;;;5.57;2.90;;;9.70;86.70;;;;;;5071895;28;20032;-75
2020/12/20 00:22:16;;;;;;;5.73;2.30;;;9.60;86.70;;;;;;5108159;28;20480;-75
2020/12/20 00:24:43;;;;;;;4.50;2.03;;;9.60;86.80;;;;;;5091778;28;20023;-75
2020/12/20 00:27:11;;;;;;;6.23;2.03;;;9.60;86.80;;;;;;5110589;28;20486;-75
2020/12/20 00:29:38;;;;;;;6.83;2.13;;;9.60;86.90;;;;;;5075763;28;20031;-75
2020/12/20 00:32:06;;;;;;;7.20;2.10;;;9.60;86.90;;;;;;5075684;28;20071;-75
2020/12/20 00:34:32;;;;;;;4.43;1.70;;;9.60;87.00;;;;;;5110949;28;20104;-75
2020/12/20 00:36:57;;;;;;;5.13;1.87;;;9.50;86.90;;;;;;5091755;28;20617;-75
2020/12/20 00:39:23;;;;;;;4.50;1.77;;;9.50;87.00;;;;;;5076121;28;20061;-76
2020/12/20 00:41:55;;;;;;;4.93;2.27;;;9.50;87.10;;;;;;5088322;28;20039;-75
2020/12/20 00:44:22;;;;;;;6.23;2.30;;;9.40;87.10;;;;;;5074510;28;20028;-75
2020/12/20 00:46:48;;;;;;;4.50;1.60;;;9.40;87.20;;;;;;5088127;28;20020;-75
2020/12/20 00:49:14;;;;;;;7.53;2.10;;;9.40;87.30;;;;;;5072133;28;20032;-75
2020/12/20 00:51:39;;;;;;;4.63;1.90;;;9.40;87.30;;;;;;5082778;28;20161;-76
2020/12/20 00:54:05;;;;;;;7.20;1.90;;;9.40;87.40;;;;;;5071655;28;20528;-75
2020/12/20 00:56:32;;;;;;;8.50;2.40;;;9.40;87.40;;;;;;5113091;28;20111;-75
2020/12/20 00:58:58;;;;;;;5.53;1.40;;;9.40;87.50;;;;;;5078899;28;20097;-76
2020/12/20 01:01:24;;;;;;;5.10;1.73;;;9.40;87.50;;;;;;5114752;28;20028;-75
2020/12/20 01:03:50;;;;;;;3.47;1.73;;;9.40;87.50;;;;;;5113699;28;20525;-75
2020/12/20 01:06:21;;;;;;;6.23;1.70;;;9.40;87.50;;;;;;5113813;28;20031;-75
2020/12/20 01:08:47;;;;;;;6.03;1.77;;;9.40;87.60;;;;;;5078369;28;20490;-75
2020/12/20 01:11:14;;;;;;;5.20;2.07;;;9.40;87.50;;;;;;5114211;28;20032;-75
2020/12/20 01:13:43;;;;;;;5.47;1.77;;;9.50;87.50;;;;;;5078828;28;20086;-75
2020/12/20 01:16:21;;;;;;;5.20;2.20;;;9.50;87.40;;;;;;5114388;28;20039;-75
2020/12/20 01:18:48;;;;;;;7.97;1.97;;;9.50;87.30;;;;;;5095776;28;20027;-75
2020/12/20 01:21:14;;;;;;;8.20;2.10;;;9.60;87.30;;;;;;5095506;28;20080;-75
2020/12/20 01:23:40;;;;;;;4.77;1.87;;;9.60;87.20;;;;;;5078771;28;20104;-75
2020/12/20 01:26:06;;;;;;;5.97;1.70;;;9.60;87.20;;;;;;5061144;28;20031;-75
2020/12/20 01:28:32;;;;;;;5.80;1.93;;;9.60;87.20;;;;;;5095296;28;20035;-75
2020/12/20 01:31:06;;;;;;;5.70;1.60;;;9.70;87.20;;;;;;5077284;28;20122;-75
2020/12/20 01:33:34;;;;;;;6.10;1.80;;;9.70;87.20;;;;;;5095719;28;20498;-75
2020/12/20 01:36:06;;;;;;;8.93;2.07;;;9.70;87.10;;;;;;5113146;28;20028;-75
2020/12/20 01:38:32;;;;;;;4.03;1.70;;;9.80;87.00;;;;;;5095565;28;20035;-75
2020/12/20 01:40:57;;;;;;;7.20;1.80;;;9.80;86.90;;;;;;5074357;28;20031;-75
2020/12/20 01:43:23;;;;;;;5.27;1.60;;;9.90;86.90;;;;;;5075638;28;20089;-75
2020/12/20 01:45:50;;;;;;;6.57;1.93;;;9.90;86.70;;;;;;5109380;28;20460;-75
2020/12/20 01:48:16;;;;;;;5.10;1.43;;;9.90;86.50;;;;;;5078408;28;20038;-75
2020/12/20 01:50:43;;;;;;;5.17;1.63;;;9.90;86.50;;;;;;5113325;28;20028;-76
2020/12/20 01:53:10;;;;;;;4.37;1.73;;;9.90;86.50;;;;;;5094458;28;20031;-75
2020/12/20 01:55:36;;;;;;;4.50;1.70;;;10.00;86.50;;;;;;5095210;28;20183;-75
2020/12/20 01:58:03;;;;;;;6.77;1.60;;;10.00;86.50;;;;;;5094264;28;20027;-75
2020/12/20 02:00:28;;;;;;;5.30;1.50;;;10.00;86.50;;;;;;5096127;28;20043;-75
2020/12/20 02:02:54;;;;;;;10.47;1.80;;;10.00;86.40;;;;;;5078121;28;20047;-75
2020/12/20 02:05:20;;;;;;;4.53;1.63;;;10.00;86.30;;;;;;5077061;28;20070;-75
2020/12/20 02:07:47;;;;;;;3.27;1.50;;;10.00;86.20;;;;;;5076329;28;20035;-75
2020/12/20 02:10:16;;;;;;;8.70;1.60;;;10.00;86.10;;;;;;5095053;28;20042;-75
2020/12/20 02:12:42;;;;;;;6.80;1.57;;;10.10;86.10;;;;;;5094348;28;20019;-75
2020/12/20 02:15:09;;;;;;;4.10;1.23;;;10.10;86.10;;;;;;5073753;28;20399;-75
2020/12/20 02:17:34;;;;;;;4.00;1.50;;;10.10;86.00;;;;;;5092962;28;20032;-75
2020/12/20 02:20:00;;;;;;;6.80;1.47;;;10.10;86.00;;;;;;5090769;28;20057;-75
2020/12/20 02:22:25;;;;;;;6.73;1.60;;;10.10;86.00;;;;;;5073830;28;20040;-75
2020/12/20 02:24:51;;;;;;;4.80;1.10;;;10.10;86.00;;;;;;5092752;28;20082;-75
2020/12/20 02:27:17;;;;;;;6.70;1.50;;;10.10;85.90;;;;;;5091693;28;20494;-75
2020/12/20 02:29:42;;;;;;;6.47;1.40;;;10.10;85.90;;;;;;5091443;28;20113;-75
2020/12/20 02:32:08;;;;;;;4.50;1.20;;;10.10;86.00;;;;;;5091332;28;20032;-75
2020/12/20 02:34:33;;;;;;;5.10;1.40;;;10.10;86.00;;;;;;5074861;28;20472;-75
2020/12/20 02:36:59;;;;;;;3.97;1.50;;;10.10;85.90;;;;;;5073118;28;20038;-75
2020/12/20 02:39:25;;;;;;;3.77;1.03;;;10.10;85.90;;;;;;5091944;28;20430;-75
2020/12/20 02:41:55;;;;;;;2.63;1.20;;;10.10;85.90;;;;;;5056730;28;20123;-76
2020/12/20 02:44:21;;;;;;;3.50;1.10;;;10.00;86.00;;;;;;5091983;28;20078;-75
2020/12/20 02:46:46;;;;;;;5.67;1.57;;;10.10;86.50;;;;;;5090337;28;20016;-75
2020/12/20 02:49:12;;;;;;;3.50;1.20;;;10.10;86.10;;;;;;5092119;28;20040;-75
2020/12/20 02:51:39;;;;;;;5.30;1.60;;;10.10;86.10;;;;;;5090399;28;20027;-75
2020/12/20 02:54:05;;;;;;;6.10;1.30;;;10.10;86.10;;;;;;5091159;28;20164;-75
2020/12/20 02:56:30;;;;;;;4.23;1.10;;;10.10;86.20;;;;;;5091377;28;20020;-75
2020/12/20 02:58:56;;;;;;;8.00;1.20;;;10.20;86.20;;;;;;5089568;28;20472;-75
2020/12/20 03:01:22;;;;;;;4.30;1.30;;;10.20;86.10;;;;;;5090590;28;20047;-75
2020/12/20 03:03:47;;;;;;;9.17;1.13;;;10.20;86.00;;;;;;5091634;28;20028;-75
2020/12/20 03:06:13;;;;;;;4.80;0.90;;;10.20;86.00;;;;;;5073248;28;20421;-75
2020/12/20 03:08:39;;;;;;;6.07;1.17;;;10.20;85.90;;;;;;5073438;28;20024;-74
2020/12/20 03:11:04;;;;;;;5.30;1.23;;;10.20;85.90;;;;;;5089348;28;20035;-75
2020/12/20 03:13:30;;;;;;;5.77;1.13;;;10.20;85.90;;;;;;5073515;28;20028;-75
2020/12/20 03:15:55;;;;;;;4.07;1.10;;;10.20;85.90;;;;;;5111040;28;20066;-75
2020/12/20 03:18:21;;;;;;;4.53;1.30;;;10.20;85.80;;;;;;5076388;28;20039;-75
2020/12/20 03:20:47;;;;;;;4.93;1.30;;;10.20;85.70;;;;;;5059237;28;20097;-75
2020/12/20 03:23:12;;;;;;;8.73;1.40;;;10.30;85.70;;;;;;5075516;28;20034;-75
2020/12/20 03:25:38;;;;;;;5.87;1.20;;;10.30;85.50;;;;;;5092822;28;20386;-75
2020/12/20 03:28:04;;;;;;;5.87;1.13;;;10.30;85.50;;;;;;5111006;28;20356;-75
2020/12/20 03:30:29;;;;;;;5.67;1.50;;;10.30;85.40;;;;;;5092985;28;20046;-75
2020/12/20 03:32:55;;;;;;;7.73;1.37;;;10.30;85.40;;;;;;5092929;28;20089;-75
2020/12/20 03:35:21;;;;;;;3.57;0.90;;;10.30;85.50;;;;;;5111804;28;20034;-75
2020/12/20 03:37:52;;;;;;;4.40;1.00;;;10.30;85.50;;;;;;5072841;28;20043;-75
2020/12/20 03:40:24;;;;;;;4.80;1.50;;;10.30;85.50;;;;;;5089953;28;20023;-75
2020/12/20 03:42:49;;;;;;;8.37;1.53;;;10.30;85.40;;;;;;5072739;28;20369;-76
2020/12/20 03:45:17;;;;;;;3.83;1.03;;;10.30;85.60;;;;;;5072677;28;20034;-75
2020/12/20 03:47:43;;;;;;;7.43;1.47;;;10.30;85.20;;;;;;5056590;28;20097;-74
2020/12/20 03:50:09;;;;;;;4.00;1.00;;;10.30;85.00;;;;;;5071965;28;20711;-75
2020/12/20 03:52:35;;;;;;;5.07;1.20;;;10.30;85.10;;;;;;5072909;28;20134;-76
2020/12/20 03:55:01;;;;;;;3.53;1.10;;;10.20;85.10;;;;;;5096370;28;20383;-75
2020/12/20 03:57:26;;;;;;;6.57;1.40;;;10.20;85.10;;;;;;5093562;28;20036;-74
2020/12/20 03:59:52;;;;;;;6.70;1.43;;;10.20;85.10;;;;;;5075589;28;20361;-75
2020/12/20 04:02:18;;;;;;;3.77;1.27;;;10.20;85.00;;;;;;5092832;28;20032;-75
2020/12/20 04:04:43;;;;;;;6.27;1.27;;;10.20;85.10;;;;;;5092618;28;20368;-75
2020/12/20 04:07:09;;;;;;;7.13;1.80;;;10.20;85.30;;;;;;5058607;28;20027;-75
2020/12/20 04:09:35;;;;;;;5.83;1.20;;;10.10;85.30;;;;;;5071963;28;20228;-75
2020/12/20 04:12:02;;;;;;;4.40;1.40;;;10.10;85.40;;;;;;5098067;28;20020;-75
2020/12/20 04:14:28;;;;;;;6.03;1.33;;;10.10;85.60;;;;;;5090376;28;20420;-75
2020/12/20 04:16:53;;;;;;;7.53;1.30;;;10.10;85.60;;;;;;5071982;28;20016;-75
2020/12/20 04:19:19;;;;;;;4.87;1.53;;;10.10;85.70;;;;;;5071907;28;20480;-75
2020/12/20 04:21:45;;;;;;;3.93;1.40;;;10.10;85.80;;;;;;5041781;28;20032;-75
2020/12/20 04:24:10;;;;;;;5.80;1.90;;;10.10;85.80;;;;;;5091886;28;20027;-75
2020/12/20 04:26:36;;;;;;;4.13;1.10;;;10.00;85.90;;;;;;5110877;28;20108;-75
2020/12/20 04:29:02;;;;;;;5.43;1.37;;;10.10;86.00;;;;;;5091894;28;20118;-75
2020/12/20 04:31:27;;;;;;;5.43;1.40;;;10.00;86.00;;;;;;5114961;28;20032;-75
2020/12/20 04:33:53;;;;;;;5.53;1.40;;;10.00;86.00;;;;;;5096241;28;20034;-75
2020/12/20 04:36:19;;;;;;;6.03;1.10;;;10.00;86.00;;;;;;5079669;28;20758;-75
2020/12/20 04:38:44;;;;;;;7.10;1.90;;;10.00;86.00;;;;;;5079944;28;20059;-75
2020/12/20 04:41:11;;;;;;;5.73;1.00;;;10.00;86.00;;;;;;5095685;28;20479;-75
2020/12/20 04:43:38;;;;;;;6.80;1.30;;;10.00;86.00;;;;;;5095967;28;20039;-75
2020/12/20 04:46:05;;;;;;;6.53;1.20;;;10.00;86.00;;;;;;5114374;28;20028;-75
2020/12/20 04:48:39;;;;;;;3.83;1.30;;;10.00;86.00;;;;;;5114800;28;20108;-75
2020/12/20 04:51:06;;;;;;;5.87;1.40;;;10.00;86.00;;;;;;5113859;28;20081;-74
2020/12/20 04:53:32;;;;;;;3.87;1.00;;;10.00;86.00;;;;;;5096026;28;20126;-75
2020/12/20 04:56:02;;;;;;;5.70;1.03;;;10.00;86.00;;;;;;5113771;28;20035;-75
2020/12/20 04:58:28;;;;;;;5.77;1.20;;;10.00;86.00;;;;;;5095827;28;20105;-75
2020/12/20 05:00:54;;;;;;;3.23;1.10;;;10.00;86.00;;;;;;5095657;28;20024;-75
2020/12/20 05:03:19;;;;;;;4.50;1.43;;;10.00;86.00;;;;;;5095637;28;20035;-75
2020/12/20 05:05:45;;;;;;;8.83;1.57;;;10.00;86.00;;;;;;5096268;28;20424;-75
2020/12/20 05:08:13;;;;;;;5.53;1.50;;;10.00;85.90;;;;;;5078395;28;20550;-75
2020/12/20 05:10:40;;;;;;;6.47;1.30;;;10.00;86.00;;;;;;5096432;28;20134;-75
2020/12/20 05:13:07;;;;;;;5.43;1.50;;;10.00;86.00;;;;;;5113549;28;20042;-75
2020/12/20 05:15:33;;;;;;;7.00;1.30;;;10.00;86.00;;;;;;5079089;28;20398;-75
2020/12/20 05:18:10;;;;;;;5.37;1.30;;;10.00;85.90;;;;;;5094630;28;20063;-76
2020/12/20 05:20:44;;;;;;;5.93;1.10;;;10.00;85.90;;;;;;5096151;28;20039;-75
2020/12/20 05:23:11;;;;;;;5.30;1.33;;;10.00;86.30;;;;;;5091493;28;20032;-75
2020/12/20 05:25:38;;;;;;;6.33;1.43;;;9.90;85.80;;;;;;5093598;28;20027;-75
2020/12/20 05:28:21;;;;;;;7.20;1.20;;;9.90;85.90;;;;;;5113358;28;20028;-75
2020/12/20 05:30:48;;;;;;;7.67;1.40;;;10.00;85.90;;;;;;5114349;28;20020;-75
2020/12/20 05:33:43;;;;;;;7.73;1.50;;;9.90;85.80;;;;;;5095074;28;20019;-75
2020/12/20 05:36:09;;;;;;;7.83;1.53;;;9.90;85.90;;;;;;5091470;28;20036;-75
2020/12/20 05:38:36;;;;;;;3.70;1.00;;;9.90;85.90;;;;;;5095976;28;20209;-75
2020/12/20 05:41:03;;;;;;;4.47;1.07;;;9.90;85.80;;;;;;5113433;28;20032;-75
2020/12/20 05:43:29;;;;;;;9.10;2.10;;;9.90;85.80;;;;;;5079063;28;20031;-75
2020/12/20 05:45:58;;;;;;;6.77;1.10;;;9.90;85.70;;;;;;5095868;28;20023;-75
2020/12/20 05:48:26;;;;;;;8.60;1.33;;;9.90;85.70;;;;;;5095327;28;20019;-75
2020/12/20 05:50:59;;;;;;;6.63;1.20;;;9.90;85.70;;;;;;5095524;28;20027;-75
2020/12/20 05:53:30;;;;;;;4.57;0.97;;;9.90;85.80;;;;;;5103272;28;20028;-75
2020/12/20 05:55:57;;;;;;;8.23;1.40;;;9.90;85.80;;;;;;5112232;28;20020;-75
2020/12/20 05:58:23;;;;;;;4.53;1.10;;;9.80;85.70;;;;;;5094875;28;20574;-75
2020/12/20 06:00:49;;;;;;;4.67;1.20;;;9.80;85.80;;;;;;5095233;28;20088;-75
2020/12/20 06:03:16;;;;;;;8.93;1.30;;;9.80;85.80;;;;;;5094412;28;20024;-75
2020/12/20 06:05:44;;;;;;;6.67;1.30;;;9.80;85.90;;;;;;5113404;28;20028;-75
2020/12/20 06:08:12;;;;;;;6.30;1.10;;;9.80;85.90;;;;;;5094191;28;20487;-75
2020/12/20 06:10:40;;;;;;;6.07;1.13;;;9.70;86.00;;;;;;5094979;28;20125;-75
2020/12/20 06:13:24;;;;;;;6.87;1.50;;;9.70;86.10;;;;;;5110938;28;20031;-75
2020/12/20 06:15:57;;;;;;;5.43;1.23;;;9.60;86.00;;;;;;5113179;28;20483;-74
2020/12/20 06:18:31;;;;;;;10.45;1.60;;;9.60;86.20;;;;;;5112177;28;20042;-74
2020/12/20 06:21:02;;;;;;;6.87;1.30;;;9.60;86.20;;;;;;5113118;28;20028;-75
2020/12/20 06:23:32;;;;;;;4.40;1.00;;;9.60;86.20;;;;;;5112791;28;20102;-75
2020/12/20 06:25:59;;;;;;;8.27;1.33;;;9.60;86.30;;;;;;5094848;28;20114;-76
2020/12/20 06:28:30;;;;;;;7.20;1.40;;;9.50;86.30;;;;;;5094516;28;20046;-74
2020/12/20 06:30:56;;;;;;;6.40;1.40;;;9.50;86.30;;;;;;5094785;28;20035;-75
2020/12/20 06:33:34;;;;;;;5.27;1.00;;;9.50;86.40;;;;;;5093636;28;20034;-75
2020/12/20 06:36:02;;;;;;;8.77;1.47;;;9.50;86.50;;;;;;5094392;28;20118;-75
2020/12/20 06:38:28;;;;;;;7.03;1.17;;;9.50;86.60;;;;;;5077122;28;20039;-75
2020/12/20 06:40:54;;;;;;;7.83;1.23;;;9.50;86.70;;;;;;5094452;28;20028;-75
2020/12/20 06:43:30;;;;;;;9.27;1.20;;;9.50;87.10;;;;;;5076420;28;20666;-75
2020/12/20 06:45:56;;;;;;;5.33;1.10;;;9.50;86.80;;;;;;5093899;28;20051;-75
2020/12/20 06:48:33;;;;;;;6.50;1.43;;;9.50;86.70;;;;;;5093405;28;20262;-75
2020/12/20 06:51:00;;;;;;;6.13;1.30;;;9.50;86.70;;;;;;5094546;28;20280;-75
2020/12/20 06:53:51;;;;;;;5.90;1.40;;;9.50;86.70;;;;;;5092976;28;20047;-74
2020/12/20 06:56:18;;;;;;;8.10;1.37;;;9.50;86.70;;;;;;5106653;28;20038;-74
2020/12/20 06:58:44;;;;;;;9.87;1.83;;;9.50;86.70;;;;;;5112516;28;20027;-75
2020/12/20 07:01:10;;;;;;;5.13;1.60;;;9.40;86.60;;;;;;5093541;28;20115;-75
2020/12/20 07:03:40;;;;;;;5.80;1.57;;;9.40;86.70;;;;;;5112305;28;20035;-75
2020/12/20 07:06:13;;;;;;;6.80;1.10;;;9.50;86.70;;;;;;5093302;28;20040;-75
2020/12/20 07:08:39;;;;;;;7.70;1.75;;;9.50;86.70;;;;;;5077308;28;20364;-75
2020/12/20 07:11:16;;;;;;;6.17;1.80;;;9.50;86.70;;;;;;5093197;28;20552;-76
2020/12/20 07:13:44;;;;;;;11.40;1.83;;;9.50;86.80;;;;;;5111499;28;20032;-76
2020/12/20 07:16:35;;;;;;;3.07;1.00;;;9.50;86.90;;;;;;5111327;28;20047;-76
2020/12/20 07:19:02;;;;;;;7.07;1.20;;;9.50;86.90;;;;;;5111776;28;20502;-77
2020/12/20 07:21:28;;;;;;;6.00;1.17;;;9.50;86.90;;;;;;5076444;28;20398;-75
2020/12/20 07:24:01;;;;;;;6.47;1.10;;;9.50;86.80;;;;;;5111997;28;20106;-75
2020/12/20 07:26:27;;;;;;;6.30;0.90;;;9.50;86.70;;;;;;5092740;28;20024;-75
2020/12/20 07:28:58;;;;;;;5.53;0.97;;;9.50;86.70;;;;;;5075553;28;20591;-76
2020/12/20 07:31:24;;;;;;;2.73;0.80;;;9.60;86.80;;;;;;5110594;28;20023;-75
2020/12/20 07:33:51;;;;;;;7.30;1.10;;;9.60;86.70;;;;;;5076967;28;20096;-74
2020/12/20 07:36:19;;;;;;;5.37;0.90;;;9.60;86.50;;;;;;5110967;28;20397;-75
2020/12/20 07:38:45;;;;;;;3.93;1.00;;;9.60;86.60;;;;;;5111306;28;20103;-76
2020/12/20 07:41:12;;;;;;;8.43;1.37;;;9.60;86.60;;;;;;5092624;28;20122;-75
2020/12/20 07:43:38;;;;;;;8.63;0.97;;;9.60;86.50;;;;;;5093783;28;20506;-74
2020/12/20 07:46:09;;;;;;;8.13;1.00;;;9.70;86.40;;;;;;5110926;28;20031;-77
2020/12/20 07:48:35;;;;;;;8.97;0.80;;;9.70;86.40;;;;;;5093058;28;20043;-76
2020/12/20 07:51:15;;;;;;;4.97;1.00;;;9.70;86.40;;;;;;5093184;28;20456;-75
2020/12/20 07:53:45;;;;;;;10.97;1.37;;;9.70;86.20;;;;;;5111570;28;20024;-75
2020/12/20 07:56:31;;;;;;;6.27;1.20;;;9.80;86.20;;;;;;5109643;28;20051;-76
2020/12/20 07:59:08;;;;;;;8.17;1.00;;;9.80;86.30;;;;;;5093369;28;20024;-76
2020/12/20 08:01:35;;;;;;;7.13;1.03;;;9.80;86.20;;;;;;5093143;28;20023;-76
2020/12/20 08:04:20;;;;;;;7.60;0.87;;;9.80;86.20;;;;;;5091652;28;20060;-75
2020/12/20 08:06:52;;;;;;;7.40;1.23;;;9.80;85.90;;;;;;5109397;28;20038;-74
2020/12/20 08:09:22;;;;;;;8.45;1.23;;;9.80;85.80;;;;;;5110125;28;20040;-76
2020/12/20 08:11:49;;;;;;;7.97;1.10;;;9.90;85.60;;;;;;5090991;28;20102;-75
2020/12/20 08:14:17;;;;;;;6.67;1.00;;;9.90;85.60;;;;;;5090972;28;20386;-75
2020/12/20 08:16:50;;;;;;;9.60;1.43;;;9.90;85.40;;;;;;5092815;28;20380;-75
2020/12/20 08:19:15;;;;;;;7.18;1.10;;;10.00;85.30;;;;;;5087143;28;20052;-76
2020/12/20 08:21:59;;;;;;;9.80;1.00;;;10.00;85.30;;;;;;5108260;28;20080;-76
2020/12/20 08:24:33;;;;;;;6.03;0.77;;;10.10;85.40;;;;;;5087266;28;20031;-75
2020/12/20 08:27:10;;;;;;;10.57;0.90;;;10.10;85.30;;;;;;5087006;28;20024;-74
2020/12/20 08:29:36;;;;;;;5.90;0.87;;;10.20;85.10;;;;;;5073987;28;20371;-76
2020/12/20 08:32:17;;;;;;;10.73;1.33;;;10.20;85.00;;;;;;5104455;28;20039;-75
2020/12/20 08:34:43;;;;;;;10.07;1.13;;;10.20;84.70;;;;;;5084436;28;20016;-75
2020/12/20 08:37:11;;;;;;;8.57;0.97;;;10.30;84.80;;;;;;5084974;28;20028;-76
2020/12/20 08:39:37;;;;;;;9.67;1.40;;;10.40;84.60;;;;;;5103601;28;20020;-75
2020/12/20 08:42:12;;;;;;;6.03;1.00;;;10.40;84.20;;;;;;5068568;28;20115;-74
2020/12/20 08:44:39;;;;;;;12.13;1.00;;;10.50;84.40;;;;;;5085168;28;20388;-75
2020/12/20 08:47:10;;;;;;;6.10;1.10;;;10.50;84.20;;;;;;5067251;28;20092;-76
2020/12/20 08:49:38;;;;;;;9.60;1.50;;;10.50;84.30;;;;;;5103314;28;20042;-73
2020/12/20 08:52:07;;;;;;;7.93;1.60;;;10.60;83.70;;;;;;5092881;28;20027;-74
2020/12/20 08:54:33;;;;;;;9.00;1.60;;;10.60;83.60;;;;;;5085713;28;20030;-74
2020/12/20 08:57:03;;;;;;;9.93;1.30;;;10.60;83.70;;;;;;5103779;28;20444;-74
2020/12/20 08:59:33;;;;;;;8.27;1.57;;;10.60;83.50;;;;;;5086447;28;20019;-75
2020/12/20 09:01:59;;;;;;;9.10;1.80;;;10.60;83.70;;;;;;5084907;28;20119;-76
2020/12/20 09:04:27;;;;;;;9.17;1.40;;;10.60;83.00;;;;;;5077231;28;20024;-77
2020/12/20 09:07:01;;;;;;;9.03;2.37;;;10.60;83.10;;;;;;5084058;28;20100;-76
2020/12/20 09:09:27;;;;;;;11.73;3.27;;;10.70;83.30;;;;;;5067024;28;20031;-76
2020/12/20 09:11:53;;;;;;;10.17;2.27;;;10.70;83.40;;;;;;5084509;28;20019;-76
2020/12/20 09:14:19;;;;;;;9.20;2.10;;;10.80;83.30;;;;;;5082199;28;20032;-76
2020/12/20 09:16:45;;;;;;;10.97;2.30;;;10.80;83.00;;;;;;5076239;28;20035;-75
2020/12/20 09:19:12;;;;;;;12.67;2.27;;;10.80;83.00;;;;;;5107643;28;20030;-76
2020/12/20 09:21:38;;;;;;;8.37;2.67;;;10.80;82.50;;;;;;5089052;28;20042;-75
2020/12/20 09:24:04;;;;;;;10.03;1.80;;;10.80;82.80;;;;;;5107957;28;20495;-75
2020/12/20 09:26:29;;;;;;;13.20;3.03;;;10.80;82.10;;;;;;5071933;28;20467;-76
2020/12/20 09:28:55;;;;;;;10.33;4.00;;;10.80;82.20;;;;;;5110105;28;20028;-76
2020/12/20 09:31:21;;;;;;;12.77;4.20;;;10.80;82.40;;;;;;5110351;28;20032;-75
2020/12/20 09:33:52;;;;;;;11.97;5.10;;;10.90;82.60;;;;;;5094703;28;20384;-76
2020/12/20 09:36:23;;;;;;;14.20;6.03;;;10.90;82.70;;;;;;5093501;28;20028;-76
2020/12/20 09:38:57;;;;;;;14.23;4.60;;;10.90;82.60;;;;;;5101741;28;20038;-75
2020/12/20 09:41:25;;;;;;;8.60;3.20;;;11.00;82.50;;;;;;5087422;28;20036;-76
2020/12/20 09:43:53;;;;;;;14.00;4.50;;;11.00;82.20;;;;;;5104977;28;20122;-75
2020/12/20 09:46:27;;;;;;;11.43;3.47;;;11.00;82.20;;;;;;5083154;28;20027;-75
2020/12/20 09:48:56;;;;;;;12.60;6.67;;;11.00;82.10;;;;;;5102138;28;20032;-75
2020/12/20 09:51:23;;;;;;;12.07;3.07;;;11.00;82.20;;;;;;5107111;28;20031;-74
2020/12/20 09:53:50;;;;;;;15.00;5.60;;;11.10;81.90;;;;;;5086577;28;20016;-74
2020/12/20 09:56:16;;;;;;;14.77;5.30;;;11.10;81.90;;;;;;5104783;28;20028;-75
2020/12/20 09:58:42;;;;;;;11.57;4.10;;;11.10;81.50;;;;;;5080787;28;20040;-76
2020/12/20 10:01:18;;;;;;;13.50;7.20;;;11.20;81.40;;;;;;5087092;28;21453;-76
2020/12/20 10:03:44;;;;;;;14.73;5.63;;;11.20;81.60;;;;;;5079204;28;20547;-77
2020/12/20 10:06:10;;;;;;;11.13;4.30;;;11.20;81.60;;;;;;5084766;28;20020;-76
2020/12/20 10:08:36;;;;;;;17.87;5.70;;;11.30;81.30;;;;;;5072592;28;20396;-76
2020/12/20 10:11:02;;;;;;;11.40;4.60;;;11.30;81.20;;;;;;5076587;28;20036;-74
2020/12/20 10:13:27;;;;;;;15.90;6.00;;;11.30;81.10;;;;;;5092081;28;20032;-76
2020/12/20 10:15:53;;;;;;;18.67;6.13;;;11.30;81.30;;;;;;5092029;28;20052;-76
2020/12/20 10:18:19;;;;;;;11.67;4.73;;;11.40;81.30;;;;;;5077187;28;20043;-75
2020/12/20 10:20:45;;;;;;;23.00;11.13;;;11.40;81.00;;;;;;5089923;28;20039;-76
2020/12/20 10:23:11;;;;;;;14.53;6.13;;;11.40;81.10;;;;;;5067653;28;20028;-74
2020/12/20 10:25:40;;;;;;;21.30;8.63;;;11.40;81.00;;;;;;5093208;28;20032;-77
2020/12/20 10:28:06;;;;;;;21.80;10.07;;;11.50;80.90;;;;;;5086919;28;20034;-76
2020/12/20 10:30:32;;;;;;;15.97;6.30;;;11.50;81.10;;;;;;5102946;28;20050;-76
2020/12/20 10:32:57;;;;;;;12.90;4.10;;;11.50;81.00;;;;;;5112826;28;20031;-75
2020/12/20 10:35:23;;;;;;;13.80;3.77;;;11.40;80.60;;;;;;5095176;28;20069;-76
2020/12/20 10:37:51;;;;;;;20.07;6.10;;;11.40;80.10;;;;;;5087376;28;20035;-75
2020/12/20 10:40:17;;;;;;;18.00;6.37;;;11.30;80.60;;;;;;5080592;28;20047;-76
2020/12/20 10:42:45;;;;;;;24.03;9.30;;;11.40;80.80;;;;;;5077591;28;20123;-76
2020/12/20 10:45:11;;;;;;;14.83;3.93;;;11.40;81.40;;;;;;5119321;28;20030;-76
2020/12/20 10:47:36;;;;;;;14.20;4.40;;;11.40;81.00;;;;;;5097094;28;20210;-77
2020/12/20 10:50:03;;;;;;;18.07;7.73;;;11.40;80.80;;;;;;5091419;28;20498;-75
2020/12/20 10:52:28;;;;;;;14.83;4.40;;;11.40;81.00;;;;;;5074516;28;20032;-75
2020/12/20 10:54:54;;;;;;;16.57;6.40;;;11.30;80.70;;;;;;5072691;28;20523;-75
2020/12/20 10:57:20;;;;;;;19.13;5.00;;;11.30;80.60;;;;;;5053068;28;20032;-75
2020/12/20 10:59:45;;;;;;;22.40;7.17;;;11.40;80.60;;;;;;5070242;28;20028;-74
2020/12/20 11:02:11;;;;;;;18.17;8.80;;;11.30;80.50;;;;;;5068979;28;20036;-76
2020/12/20 11:04:37;;;;;;;17.30;8.37;;;11.30;80.70;;;;;;5089083;28;20468;-76
2020/12/20 11:07:03;;;;;;;21.77;9.47;;;11.40;80.90;;;;;;5073977;28;20030;-76
2020/12/20 11:09:29;;;;;;;13.13;5.87;;;11.40;80.80;;;;;;5074581;28;20490;-76
2020/12/20 11:11:55;;;;;;;25.20;11.47;;;11.40;80.70;;;;;;5103807;28;20040;-76
2020/12/20 11:14:22;;;;;;;17.60;8.37;;;11.50;80.90;;;;;;5102769;28;20027;-76
2020/12/20 11:16:54;;;;;;;20.07;8.03;;;11.50;81.00;;;;;;5064307;28;20128;-75
2020/12/20 11:19:20;;;;;;;18.73;7.85;;;11.50;80.80;;;;;;5108868;28;20048;-76
2020/12/20 11:21:48;;;;;;;22.63;9.23;;;11.60;80.80;;;;;;5094229;28;20023;-75
2020/12/20 11:24:13;;;;;;;19.17;8.13;;;11.60;80.80;;;;;;5111874;28;20024;-76
2020/12/20 11:26:44;;;;;;;18.00;7.83;;;11.60;80.60;;;;;;5081613;28;20028;-76
2020/12/20 11:29:11;;;;;;;21.90;10.63;;;11.60;80.70;;;;;;5105681;28;20109;-76
2020/12/20 11:31:37;;;;;;;20.90;8.83;;;11.70;80.60;;;;;;5083434;28;20185;-75
2020/12/20 11:34:03;;;;;;;25.07;12.53;;;11.80;80.60;;;;;;5084845;28;20453;-76
2020/12/20 11:36:28;;;;;;;16.23;7.97;;;11.80;80.70;;;;;;5047261;28;20024;-76
2020/12/20 11:38:54;;;;;;;18.00;10.10;;;11.80;80.60;;;;;;5091594;28;20034;-76
2020/12/20 11:41:24;;;;;;;15.00;7.37;;;11.80;80.50;;;;;;5091361;28;20023;-77
2020/12/20 11:43:54;;;;;;;21.47;8.20;;;11.90;80.30;;;;;;5110152;28;20035;-76
2020/12/20 11:46:20;;;;;;;15.17;7.00;;;12.00;80.00;;;;;;5091414;28;20034;-76
2020/12/20 11:48:47;;;;;;;13.37;5.97;;;12.10;79.90;;;;;;5103949;28;20063;-75
2020/12/20 11:51:15;;;;;;;20.63;7.47;;;12.20;79.80;;;;;;5085321;28;20039;-75
2020/12/20 11:53:41;;;;;;;18.73;6.10;;;12.20;79.80;;;;;;5086206;28;20044;-75
2020/12/20 11:56:09;;;;;;;17.30;6.83;;;12.30;79.20;;;;;;5084266;28;20039;-75
2020/12/20 11:58:35;;;;;;;18.73;7.03;;;12.30;78.70;;;;;;5069370;28;20036;-76
2020/12/20 12:01:00;;;;;;;15.83;6.63;;;12.40;78.50;;;;;;5106030;28;20472;-75
2020/12/20 12:03:26;;;;;;;15.33;5.20;;;12.40;78.70;;;;;;5052456;28;20538;-77
2020/12/20 12:05:52;;;;;;;14.20;3.30;;;12.40;78.40;;;;;;5075802;28;20024;-76
2020/12/20 12:08:18;;;;;;;19.23;8.13;;;12.40;77.90;;;;;;5086906;28;20059;-76
2020/12/20 12:10:46;;;;;;;13.93;6.33;;;12.30;78.10;;;;;;5075413;28;20070;-76
2020/12/20 12:13:12;;;;;;;10.30;3.23;;;12.40;77.70;;;;;;5090645;28;20118;-76
2020/12/20 12:15:38;;;;;;;15.43;5.80;;;12.40;77.30;;;;;;5091289;28;20142;-76
2020/12/20 12:18:04;;;;;;;19.97;7.07;;;12.50;77.60;;;;;;5062735;28;20032;-76
2020/12/20 12:20:30;;;;;;;17.20;3.90;;;12.60;77.30;;;;;;5101986;28;20038;-75
2020/12/20 12:22:56;;;;;;;14.73;5.47;;;12.70;76.50;;;;;;5074938;28;20062;-75
2020/12/20 12:25:21;;;;;;;18.57;7.00;;;12.70;77.00;;;;;;5074550;28;20479;-75
2020/12/20 12:27:47;;;;;;;11.83;4.43;;;12.70;77.10;;;;;;5092273;28;20070;-75
2020/12/20 12:30:13;;;;;;;15.60;3.53;;;12.70;77.10;;;;;;5088068;28;20457;-77
2020/12/20 12:32:39;;;;;;;15.37;6.93;;;12.60;76.40;;;;;;5090055;28;20058;-75
2020/12/20 12:35:06;;;;;;;19.20;7.23;;;12.60;77.10;;;;;;5074559;28;20147;-76
2020/12/20 12:37:32;;;;;;;16.73;5.90;;;12.60;77.50;;;;;;5102297;28;20686;-76
2020/12/20 12:39:58;;;;;;;13.03;4.47;;;12.70;77.30;;;;;;5084282;28;20131;-76
2020/12/20 12:42:23;;;;;;;17.17;5.57;;;12.70;76.80;;;;;;5109511;28;20023;-76
2020/12/20 12:44:50;;;;;;;20.60;5.90;;;12.80;77.10;;;;;;5100223;28;20059;-76
2020/12/20 12:47:16;;;;;;;16.47;4.97;;;12.90;76.80;;;;;;5091771;28;20039;-75
2020/12/20 12:49:42;;;;;;;21.93;5.37;;;12.80;76.80;;;;;;5102023;28;20042;-75